createdAt,value
2023-03-22T00:02:13.040Z,12.27
2023-03-22T00:04:39.533Z,11.25
2023-03-22T00:07:06.009Z,10.32
2023-03-22T00:09:32.497Z,9.82
2023-03-22T00:11:58.971Z,10.98
2023-03-22T00:14:25.625Z,10.88
2023-03-22T00:16:52.118Z,11.48
2023-03-22T00:19:18.667Z,8.50
2023-03-22T00:21:46.262Z,10.55
2023-03-22T00:24:13.056Z,8.65
2023-03-22T00:26:39.659Z,9.02
2023-03-22T00:29:06.249Z,7.93
2023-03-22T00:31:32.812Z,7.55
2023-03-22T00:34:00.143Z,7.38
2023-03-22T00:36:26.607Z,7.10
2023-03-22T00:38:53.117Z,8.07
2023-03-22T00:41:23.179Z,8.00
2023-03-22T00:43:51.405Z,6.75
2023-03-22T00:46:20.552Z,7.80
2023-03-22T00:48:48.069Z,7.50
2023-03-22T00:51:16.297Z,8.35
2023-03-22T00:53:43.805Z,6.68
2023-03-22T00:56:13.960Z,9.02
2023-03-22T00:58:40.943Z,7.93
2023-03-22T01:01:08.186Z,11.82
2023-03-22T01:03:35.044Z,6.68
2023-03-22T01:06:01.774Z,6.50
2023-03-22T01:08:32.997Z,6.72
2023-03-22T01:11:01.173Z,7.22
2023-03-22T01:13:28.929Z,10.48
2023-03-22T01:15:55.830Z,6.93
2023-03-22T01:18:22.364Z,8.50
2023-03-22T01:20:48.859Z,6.88
2023-03-22T01:23:15.870Z,6.82
2023-03-22T01:25:42.532Z,6.70
2023-03-22T01:28:09.690Z,8.27
2023-03-22T01:30:36.842Z,7.03
2023-03-22T01:33:03.455Z,6.85
2023-03-22T01:35:30.666Z,6.30
2023-03-22T01:37:57.155Z,8.32
2023-03-22T01:40:25.997Z,6.20
2023-03-22T01:42:56.353Z,6.85
2023-03-22T01:45:22.689Z,7.10
2023-03-22T01:47:56.992Z,7.43
2023-03-22T01:50:25.824Z,6.03
2023-03-22T01:52:57.017Z,6.10
2023-03-22T01:55:26.036Z,7.38
2023-03-22T01:57:54.671Z,5.32
2023-03-22T02:00:22.354Z,7.15
2023-03-22T02:02:52.374Z,6.22
2023-03-22T02:05:22.138Z,5.57
2023-03-22T02:07:50.117Z,5.75
2023-03-22T02:10:23.387Z,5.32
2023-03-22T02:13:26.696Z,7.38
2023-03-22T02:16:23.085Z,5.30
2023-03-22T02:19:05.738Z,5.30
2023-03-22T02:21:50.692Z,5.18
2023-03-22T02:24:50.881Z,7.65
2023-03-22T02:27:42.052Z,6.20
2023-03-22T02:30:58.728Z,14.90
2023-03-22T02:34:15.568Z,11.93
2023-03-22T02:37:27.089Z,7.40
2023-03-22T02:40:07.159Z,7.50
2023-03-22T02:43:10.764Z,11.20
2023-03-22T02:46:18.333Z,10.00
2023-03-22T02:49:03.741Z,11.55
2023-03-22T02:51:57.320Z,7.22
2023-03-22T02:54:39.777Z,7.45
2023-03-22T02:57:31.367Z,7.82
2023-03-22T03:00:01.263Z,6.63
2023-03-22T03:02:30.682Z,5.72
2023-03-22T03:04:58.547Z,6.88
2023-03-22T03:07:28.774Z,7.57
2023-03-22T03:09:56.468Z,9.80
2023-03-22T03:12:28.064Z,11.65
2023-03-22T03:14:54.746Z,7.22
2023-03-22T03:17:35.450Z,9.90
2023-03-22T03:20:30.019Z,10.77
2023-03-22T03:23:32.318Z,6.55
2023-03-22T03:26:35.695Z,8.02
2023-03-22T03:29:10.186Z,6.90
2023-03-22T03:32:06.568Z,8.57
2023-03-22T03:34:49.457Z,7.45
2023-03-22T03:37:28.211Z,7.13
2023-03-22T03:40:05.171Z,9.93
2023-03-22T03:42:32.511Z,8.93
2023-03-22T03:45:00.234Z,8.70
2023-03-22T03:47:29.298Z,18.60
2023-03-22T03:49:56.271Z,12.38
2023-03-22T03:52:24.447Z,8.57
2023-03-22T03:54:51.229Z,14.88
2023-03-22T03:57:17.894Z,8.45
2023-03-22T03:59:44.382Z,37.83
2023-03-22T04:02:10.917Z,14.75
2023-03-22T04:04:38.333Z,30.98
2023-03-22T04:07:07.058Z,17.08
2023-03-22T04:09:37.293Z,8.50
2023-03-22T04:12:04.140Z,7.88
2023-03-22T04:14:30.689Z,6.03
2023-03-22T04:16:57.324Z,7.60
2023-03-22T04:19:23.968Z,22.98
2023-03-22T04:21:53.094Z,58.17
2023-03-22T04:24:21.806Z,30.38
2023-03-22T04:26:48.842Z,142.52
2023-03-22T04:29:16.031Z,125.82
2023-03-22T04:31:42.519Z,33.55
2023-03-22T04:34:09.000Z,31.85
2023-03-22T04:36:39.303Z,13.35
2023-03-22T04:39:10.381Z,11.15
2023-03-22T04:41:37.535Z,12.00
2023-03-22T04:44:05.909Z,11.20
2023-03-22T04:46:36.586Z,10.00
2023-03-22T04:49:06.581Z,41.50
2023-03-22T04:51:33.074Z,13.98
2023-03-22T04:54:00.338Z,162.68
2023-03-22T04:56:26.980Z,89.20
2023-03-22T04:58:53.459Z,130.43
2023-03-22T05:01:19.996Z,128.60
2023-03-22T05:03:47.399Z,79.85
2023-03-22T05:06:15.704Z,300.35
2023-03-22T05:08:42.747Z,83.38
2023-03-22T05:11:17.004Z,74.85
2023-03-22T05:13:43.499Z,20.80
2023-03-22T05:16:11.101Z,39.65
2023-03-22T05:18:42.251Z,173.88
2023-03-22T05:21:15.529Z,107.18
2023-03-22T05:23:43.906Z,93.25
2023-03-22T05:26:16.000Z,32.53
2023-03-22T05:28:44.177Z,11.25
2023-03-22T05:31:11.671Z,9.55
2023-03-22T05:33:38.288Z,8.25
2023-03-22T05:36:05.343Z,8.65
2023-03-22T05:38:31.817Z,11.38
2023-03-22T05:40:58.280Z,8.43
2023-03-22T05:43:24.769Z,40.78
2023-03-22T05:45:51.337Z,51.67
2023-03-22T05:48:18.043Z,357.95
2023-03-22T05:50:44.556Z,333.25
2023-03-22T05:53:11.818Z,181.00
2023-03-22T05:55:38.643Z,58.47
2023-03-22T05:58:05.396Z,17.83
2023-03-22T06:00:32.241Z,8.43
2023-03-22T06:03:03.463Z,24.13
2023-03-22T06:05:31.776Z,37.75
2023-03-22T06:07:59.710Z,23.63
2023-03-22T06:10:28.029Z,10.32
2023-03-22T06:12:54.785Z,13.23
2023-03-22T06:15:21.777Z,10.07
2023-03-22T06:17:48.341Z,24.13
2023-03-22T06:20:15.509Z,11.40
2023-03-22T06:22:42.730Z,10.48
2023-03-22T06:25:10.856Z,18.40
2023-03-22T06:27:37.628Z,11.93
2023-03-22T06:30:05.327Z,10.18
2023-03-22T06:32:31.784Z,16.08
2023-03-22T06:34:58.325Z,15.90
2023-03-22T06:37:25.505Z,14.13
2023-03-22T06:39:52.220Z,9.73
2023-03-22T06:42:19.130Z,6.93
2023-03-22T06:44:45.670Z,11.27
2023-03-22T06:47:12.620Z,12.18
2023-03-22T06:49:39.726Z,13.85
2023-03-22T06:52:06.551Z,8.13
2023-03-22T06:54:33.268Z,8.23
2023-03-22T06:56:59.931Z,6.28
2023-03-22T06:59:26.637Z,27.85
2023-03-22T07:01:53.168Z,39.75
2023-03-22T07:04:20.043Z,38.53
2023-03-22T07:06:46.920Z,9.07
2023-03-22T07:09:13.414Z,7.32
2023-03-22T07:11:40.093Z,17.40
2023-03-22T07:14:06.683Z,17.13
2023-03-22T07:16:33.221Z,6.72
2023-03-22T07:18:59.761Z,55.63
2023-03-22T07:21:26.599Z,13.65
2023-03-22T07:23:53.355Z,20.17
2023-03-22T07:26:19.825Z,7.13
2023-03-22T07:28:46.360Z,11.60
2023-03-22T07:31:14.385Z,12.38
2023-03-22T07:33:41.228Z,11.65
2023-03-22T07:36:08.853Z,7.95
2023-03-22T07:38:36.126Z,17.08
2023-03-22T07:41:02.601Z,5.22
2023-03-22T07:43:29.189Z,73.18
2023-03-22T07:45:55.758Z,13.77
2023-03-22T07:48:23.601Z,8.00
2023-03-22T07:50:54.159Z,10.07
2023-03-22T07:53:20.767Z,152.68
2023-03-22T07:55:48.041Z,18.13
2023-03-22T07:58:14.918Z,9.32
2023-03-22T08:00:41.770Z,7.20
2023-03-22T08:03:13.239Z,9.52
2023-03-22T08:05:42.818Z,12.40
2023-03-22T08:08:10.038Z,8.82
2023-03-22T08:10:36.801Z,13.10
2023-03-22T08:13:03.389Z,8.40
2023-03-22T08:15:29.989Z,6.30
2023-03-22T08:17:58.003Z,6.57
2023-03-22T08:20:27.490Z,12.40
2023-03-22T08:22:54.854Z,13.52
2023-03-22T08:25:22.194Z,4.53
2023-03-22T08:27:48.705Z,5.75
2023-03-22T08:30:15.465Z,8.90
2023-03-22T08:32:42.065Z,8.77
2023-03-22T08:35:09.574Z,9.93
2023-03-22T08:37:36.174Z,6.75
2023-03-22T08:40:04.928Z,6.75
2023-03-22T08:42:31.505Z,5.50
2023-03-22T08:44:57.956Z,4.55
2023-03-22T08:47:24.474Z,7.53
2023-03-22T08:49:51.056Z,13.10
2023-03-22T08:52:17.531Z,12.45
2023-03-22T08:54:44.073Z,5.30
2023-03-22T08:57:10.910Z,5.50
2023-03-22T08:59:37.428Z,5.18
2023-03-22T09:02:04.121Z,5.88
2023-03-22T09:04:30.875Z,10.15
2023-03-22T09:06:57.374Z,5.45
2023-03-22T09:09:23.874Z,8.48
2023-03-22T09:11:50.506Z,9.18
2023-03-22T09:14:17.093Z,4.70
2023-03-22T09:16:43.694Z,5.30
2023-03-22T09:19:10.386Z,5.75
2023-03-22T09:21:37.610Z,4.05
2023-03-22T09:24:04.392Z,9.02
2023-03-22T09:26:31.006Z,5.60
2023-03-22T09:28:57.505Z,7.07
2023-03-22T09:31:24.115Z,8.15
2023-03-22T09:33:50.601Z,5.00
2023-03-22T09:36:17.243Z,5.03
2023-03-22T09:38:43.768Z,5.00
2023-03-22T09:41:20.724Z,5.63
2023-03-22T09:44:00.938Z,3.88
2023-03-22T09:46:35.884Z,4.75
2023-03-22T09:49:12.626Z,4.05
2023-03-22T09:51:52.250Z,6.50
2023-03-22T09:54:24.957Z,7.65
2023-03-22T09:57:04.888Z,5.60
2023-03-22T09:59:39.913Z,4.28
2023-03-22T10:02:43.038Z,7.85
2023-03-22T10:05:17.846Z,8.23
2023-03-22T10:08:06.385Z,4.05
2023-03-22T10:10:33.015Z,4.13
2023-03-22T10:13:10.459Z,11.00
2023-03-22T10:15:43.145Z,4.15
2023-03-22T10:18:20.093Z,3.45
2023-03-22T10:20:59.130Z,3.80
2023-03-22T10:24:16.840Z,3.78
2023-03-22T10:26:47.720Z,7.20
2023-03-22T10:29:39.903Z,6.15
2023-03-22T10:32:16.561Z,3.88
2023-03-22T10:34:44.062Z,4.50
2023-03-22T10:37:23.121Z,5.03
2023-03-22T10:39:55.197Z,4.82
2023-03-22T10:42:30.012Z,7.43
2023-03-22T10:45:14.117Z,4.13
2023-03-22T10:47:57.753Z,2.60
2023-03-22T10:50:34.304Z,3.13
2023-03-22T10:55:45.288Z,8.45
2023-03-22T10:58:17.250Z,13.25
2023-03-22T11:00:50.425Z,5.43
2023-03-22T11:03:29.967Z,3.58
2023-03-22T11:06:07.060Z,4.85
2023-03-22T11:08:48.447Z,3.67
2023-03-22T11:11:23.424Z,5.43
2023-03-22T11:13:55.764Z,2.90
2023-03-22T11:16:23.709Z,2.85
2023-03-22T11:18:50.658Z,4.07
2023-03-22T11:21:21.314Z,2.15
2023-03-22T11:24:02.557Z,4.20
2023-03-22T11:26:40.522Z,5.07
2023-03-22T11:29:16.969Z,2.40
2023-03-22T11:31:59.609Z,3.92
2023-03-22T11:34:30.832Z,2.97
2023-03-22T11:37:01.073Z,4.95
2023-03-22T11:39:29.573Z,9.95
2023-03-22T11:42:03.827Z,2.17
2023-03-22T11:44:37.822Z,6.25
2023-03-22T11:47:08.124Z,4.20
2023-03-22T11:49:47.358Z,5.57
2023-03-22T11:52:23.024Z,6.85
2023-03-22T11:54:51.772Z,14.33
2023-03-22T11:57:26.418Z,4.75
2023-03-22T12:00:02.486Z,5.47
2023-03-22T12:02:41.749Z,2.95
2023-03-22T12:05:20.955Z,3.13
2023-03-22T12:07:58.805Z,4.22
2023-03-22T12:10:38.499Z,2.67
2023-03-22T12:13:19.104Z,5.05
2023-03-22T12:15:54.812Z,6.38
2023-03-22T12:18:41.406Z,3.58
2023-03-22T12:21:13.587Z,5.35
2023-03-22T12:23:40.209Z,4.95
2023-03-22T12:26:11.541Z,3.80
2023-03-22T12:29:06.394Z,3.40
2023-03-22T12:31:40.489Z,6.18
2023-03-22T12:34:17.037Z,1.73
2023-03-22T12:36:56.069Z,4.93
2023-03-22T12:39:37.688Z,4.95
2023-03-22T12:42:26.388Z,4.85
2023-03-22T12:45:05.708Z,4.07
2023-03-22T12:47:42.504Z,2.50
2023-03-22T12:50:17.004Z,38.83
2023-03-22T12:52:50.209Z,5.43
2023-03-22T12:55:38.172Z,3.15
2023-03-22T12:58:10.381Z,1.88
2023-03-22T13:00:46.751Z,3.80
2023-03-22T13:05:46.556Z,4.78
2023-03-22T13:08:13.491Z,7.35
2023-03-22T13:11:08.400Z,20.73
2023-03-22T13:13:44.692Z,7.85
2023-03-22T13:18:38.129Z,7.00
2023-03-22T13:21:22.611Z,2.85
2023-03-22T13:24:13.388Z,3.63
2023-03-22T13:26:47.809Z,2.78
2023-03-22T13:29:24.452Z,8.15
2023-03-22T13:31:51.023Z,2.45
2023-03-22T13:34:31.893Z,2.95
2023-03-22T13:37:01.508Z,7.32
2023-03-22T13:39:34.552Z,2.92
2023-03-22T13:42:19.913Z,2.78
2023-03-22T13:44:58.485Z,2.13
2023-03-22T13:47:47.012Z,2.55
2023-03-22T13:50:27.422Z,3.03
2023-03-22T13:53:07.560Z,4.18
2023-03-22T13:55:46.320Z,2.10
2023-03-22T13:58:36.450Z,3.15
2023-03-22T14:01:34.984Z,1.70
2023-03-22T14:04:10.554Z,2.95
2023-03-22T14:06:59.983Z,3.47
2023-03-22T14:09:52.840Z,3.08
2023-03-22T14:12:31.002Z,2.42
2023-03-22T14:15:03.488Z,2.67
2023-03-22T14:17:55.695Z,4.72
2023-03-22T14:20:27.002Z,5.78
